createdAt,value
2024-03-26T00:02:12.226Z,5.65
2024-03-26T00:04:42.085Z,5.64
2024-03-26T00:07:08.294Z,5.63
2024-03-26T00:09:37.980Z,5.61
2024-03-26T00:12:04.733Z,5.59
2024-03-26T00:14:33.431Z,5.54
2024-03-26T00:17:02.909Z,5.52
2024-03-26T00:19:29.952Z,5.48
2024-03-26T00:21:57.086Z,5.47
2024-03-26T00:24:24.384Z,5.46
2024-03-26T00:26:50.998Z,5.43
2024-03-26T00:29:17.291Z,5.43
2024-03-26T00:31:43.434Z,5.44
2024-03-26T00:34:09.790Z,5.44
2024-03-26T00:36:36.026Z,5.43
2024-03-26T00:39:03.068Z,5.41
2024-03-26T00:41:29.380Z,5.38
2024-03-26T00:43:55.574Z,5.38
2024-03-26T00:46:22.054Z,5.38
2024-03-26T00:48:48.241Z,5.41
2024-03-26T00:51:14.479Z,5.40
2024-03-26T00:53:40.883Z,5.34
2024-03-26T00:56:09.750Z,5.33
2024-03-26T00:58:36.072Z,5.33
2024-03-26T01:01:09.535Z,5.34
2024-03-26T01:03:36.395Z,5.35
2024-03-26T01:06:03.442Z,5.36
2024-03-26T01:08:30.003Z,5.33
2024-03-26T01:10:56.497Z,5.32
2024-03-26T01:13:23.592Z,5.32
2024-03-26T01:15:52.768Z,5.30
2024-03-26T01:18:19.077Z,5.29
2024-03-26T01:20:45.417Z,5.28
2024-03-26T01:23:14.926Z,5.22
2024-03-26T01:25:41.097Z,5.16
2024-03-26T01:28:07.215Z,5.17
2024-03-26T01:30:35.384Z,5.16
2024-03-26T01:33:01.550Z,5.15
2024-03-26T01:35:30.922Z,5.13
2024-03-26T01:37:57.213Z,5.11
2024-03-26T01:40:24.331Z,5.13
2024-03-26T01:42:51.553Z,5.11
2024-03-26T01:45:18.055Z,5.08
2024-03-26T01:47:45.830Z,5.08
2024-03-26T01:50:18.049Z,5.06
2024-03-26T01:52:45.973Z,5.04
2024-03-26T01:55:13.525Z,5.03
2024-03-26T01:57:40.130Z,4.99
2024-03-26T02:00:10.078Z,4.98
2024-03-26T02:02:39.202Z,4.94
2024-03-26T02:05:06.400Z,4.95
2024-03-26T02:07:33.162Z,4.94
2024-03-26T02:09:59.814Z,4.92
2024-03-26T02:12:28.611Z,4.88
2024-03-26T02:14:57.509Z,4.84
2024-03-26T02:17:23.859Z,4.81
2024-03-26T02:19:50.373Z,4.81
2024-03-26T02:22:16.612Z,4.79
2024-03-26T02:24:42.958Z,4.76
2024-03-26T02:27:09.231Z,4.72
2024-03-26T02:29:38.747Z,4.69
2024-03-26T02:32:05.274Z,4.70
2024-03-26T02:34:31.500Z,4.70
2024-03-26T02:36:57.645Z,4.66
2024-03-26T02:39:23.865Z,4.63
2024-03-26T02:41:50.846Z,4.57
2024-03-26T02:44:17.031Z,4.56
2024-03-26T02:46:43.545Z,4.53
2024-03-26T02:49:09.795Z,4.49
2024-03-26T02:51:36.137Z,4.49
2024-03-26T02:54:07.327Z,4.48
2024-03-26T02:56:33.602Z,4.46
2024-03-26T02:59:00.116Z,4.44
2024-03-26T03:01:26.439Z,4.43
2024-03-26T03:03:52.528Z,4.42
2024-03-26T03:06:18.651Z,4.38
2024-03-26T03:08:44.818Z,4.37
2024-03-26T03:11:11.079Z,4.33
2024-03-26T03:13:37.226Z,4.29
2024-03-26T03:16:06.887Z,4.28
2024-03-26T03:18:33.106Z,4.29
2024-03-26T03:20:59.738Z,4.28
2024-03-26T03:23:26.813Z,4.27
2024-03-26T03:25:56.705Z,4.25
2024-03-26T03:28:23.787Z,4.22
2024-03-26T03:30:50.132Z,4.19
2024-03-26T03:33:16.521Z,4.17
2024-03-26T03:35:43.112Z,4.16
2024-03-26T03:38:09.577Z,4.15
2024-03-26T03:40:36.742Z,4.15
2024-03-26T03:43:03.359Z,4.16
2024-03-26T03:45:31.911Z,4.15
2024-03-26T03:47:58.050Z,4.14
2024-03-26T03:50:24.420Z,4.11
2024-03-26T03:52:50.764Z,4.08
2024-03-26T03:55:17.053Z,4.04
2024-03-26T03:57:43.590Z,3.97
2024-03-26T04:00:11.045Z,3.98
2024-03-26T04:02:39.951Z,3.97
2024-03-26T04:05:06.620Z,3.94
2024-03-26T04:07:38.247Z,3.92
2024-03-26T04:10:12.027Z,3.93
2024-03-26T04:12:38.373Z,3.92
2024-03-26T04:15:08.162Z,3.90
2024-03-26T04:17:38.127Z,3.87
2024-03-26T04:20:05.529Z,3.86
2024-03-26T04:22:32.222Z,3.87
2024-03-26T04:24:58.552Z,3.87
2024-03-26T04:27:29.930Z,3.88
2024-03-26T04:29:56.312Z,3.92
2024-03-26T04:32:22.685Z,3.94
2024-03-26T04:34:48.890Z,3.96
2024-03-26T04:37:15.289Z,3.97
2024-03-26T04:39:41.365Z,3.97
2024-03-26T04:42:09.856Z,4.00
2024-03-26T04:44:35.955Z,4.05
2024-03-26T04:47:04.573Z,4.12
2024-03-26T04:49:30.980Z,4.27
2024-03-26T04:51:57.220Z,4.42
2024-03-26T04:54:23.431Z,4.60
2024-03-26T04:56:49.926Z,4.81
2024-03-26T04:59:16.288Z,5.03
2024-03-26T05:01:42.708Z,5.27
2024-03-26T05:04:08.960Z,5.55
2024-03-26T05:06:35.441Z,5.77
2024-03-26T05:09:01.813Z,5.99
2024-03-26T05:11:33.690Z,6.22
2024-03-26T05:14:00.241Z,6.42
2024-03-26T05:16:26.771Z,6.67
2024-03-26T05:18:53.379Z,6.95
2024-03-26T05:21:19.520Z,7.14
2024-03-26T05:23:46.896Z,7.29
2024-03-26T05:26:13.261Z,7.44
2024-03-26T05:28:39.647Z,7.68
2024-03-26T05:31:17.621Z,8.00
2024-03-26T05:33:46.119Z,8.31
2024-03-26T05:36:12.715Z,8.62
2024-03-26T05:38:39.412Z,8.89
2024-03-26T05:41:05.914Z,9.02
2024-03-26T05:43:32.093Z,9.17
2024-03-26T05:45:58.329Z,9.49
2024-03-26T05:48:24.846Z,9.96
2024-03-26T05:50:52.679Z,10.47
2024-03-26T05:53:19.966Z,11.07
2024-03-26T05:55:46.716Z,11.57
2024-03-26T05:58:13.997Z,11.98
2024-03-26T06:00:40.792Z,12.46
2024-03-26T06:03:07.057Z,12.89
2024-03-26T06:05:33.294Z,13.26
2024-03-26T06:07:59.504Z,13.57
2024-03-26T06:10:28.035Z,13.51
2024-03-26T06:12:54.789Z,13.36
2024-03-26T06:15:21.060Z,13.23
2024-03-26T06:17:50.267Z,13.22
2024-03-26T06:20:16.648Z,13.53
2024-03-26T06:22:46.182Z,13.86
2024-03-26T06:25:12.603Z,14.18
2024-03-26T06:27:38.858Z,14.65
2024-03-26T06:30:06.400Z,15.16
2024-03-26T06:32:33.006Z,15.74
2024-03-26T06:34:59.382Z,16.42
2024-03-26T06:37:28.499Z,16.86
2024-03-26T06:39:54.637Z,17.22
2024-03-26T06:42:21.171Z,17.30
2024-03-26T06:44:47.607Z,17.37
2024-03-26T06:47:13.760Z,17.95
2024-03-26T06:49:43.236Z,18.52
2024-03-26T06:52:14.504Z,18.94
2024-03-26T06:54:41.999Z,19.28
2024-03-26T06:57:08.904Z,19.79
2024-03-26T06:59:36.569Z,20.18
2024-03-26T07:02:04.675Z,20.37
2024-03-26T07:04:32.334Z,20.61
2024-03-26T07:07:06.382Z,21.01
2024-03-26T07:09:32.778Z,21.36
2024-03-26T07:12:01.655Z,21.49
2024-03-26T07:14:45.370Z,21.33
2024-03-26T07:17:27.406Z,20.96
2024-03-26T07:19:53.693Z,20.35
2024-03-26T07:22:20.327Z,19.88
2024-03-26T07:24:46.531Z,19.52
2024-03-26T07:27:15.968Z,19.36
2024-03-26T07:29:43.170Z,19.52
2024-03-26T07:32:09.573Z,19.73
2024-03-26T07:34:37.528Z,19.93
2024-03-26T07:37:11.622Z,20.29
2024-03-26T07:39:40.612Z,20.47
2024-03-26T07:42:07.095Z,20.51
2024-03-26T07:44:40.777Z,20.38
2024-03-26T07:47:07.646Z,20.14
2024-03-26T07:49:44.026Z,19.92
2024-03-26T07:52:10.565Z,19.62
2024-03-26T07:54:40.067Z,19.46
2024-03-26T07:57:07.582Z,19.34
2024-03-26T07:59:34.081Z,19.17
2024-03-26T08:02:03.748Z,18.98
2024-03-26T08:04:30.204Z,18.73
2024-03-26T08:06:59.114Z,18.49
2024-03-26T08:09:28.054Z,18.34
2024-03-26T08:11:57.306Z,18.22
2024-03-26T08:14:33.875Z,18.04
2024-03-26T08:17:00.273Z,17.96
2024-03-26T08:19:26.750Z,17.83
2024-03-26T08:21:53.221Z,17.63
2024-03-26T08:24:19.490Z,17.42
2024-03-26T08:26:45.813Z,17.31
2024-03-26T08:29:14.660Z,17.32
2024-03-26T08:31:40.918Z,17.27
2024-03-26T08:34:07.102Z,17.21
2024-03-26T08:36:33.670Z,17.12
2024-03-26T08:39:02.477Z,17.06
2024-03-26T08:41:29.045Z,17.00
2024-03-26T08:43:55.544Z,16.90
2024-03-26T08:46:21.817Z,16.64
2024-03-26T08:48:51.638Z,16.41
2024-03-26T08:51:18.113Z,16.40
2024-03-26T08:53:47.360Z,16.41
2024-03-26T08:56:23.675Z,16.40
2024-03-26T08:58:52.034Z,16.30
2024-03-26T09:01:18.226Z,16.11
2024-03-26T09:03:47.022Z,15.69
2024-03-26T09:06:13.457Z,15.57
2024-03-26T09:08:39.783Z,15.58
2024-03-26T09:11:06.395Z,15.60
2024-03-26T09:13:40.065Z,15.59
2024-03-26T09:16:07.722Z,15.60
2024-03-26T09:18:48.149Z,15.71
2024-03-26T09:21:14.139Z,15.72
2024-03-26T09:23:40.570Z,15.61
2024-03-26T09:26:06.775Z,15.64
2024-03-26T09:28:36.122Z,15.69
2024-03-26T09:31:07.011Z,15.66
2024-03-26T09:33:33.973Z,15.66
2024-03-26T09:36:00.211Z,15.62
2024-03-26T09:38:39.555Z,15.63
2024-03-26T09:41:12.192Z,15.75
2024-03-26T09:43:38.758Z,15.80
2024-03-26T09:46:10.815Z,15.78
2024-03-26T09:48:37.859Z,15.76
2024-03-26T09:51:07.681Z,15.76
2024-03-26T09:53:34.080Z,15.71
2024-03-26T09:56:03.922Z,15.59
2024-03-26T09:58:30.103Z,15.67
2024-03-26T10:00:58.611Z,15.73
2024-03-26T10:03:29.078Z,15.78
2024-03-26T10:05:55.360Z,15.80
2024-03-26T10:08:21.738Z,15.86
2024-03-26T10:10:48.157Z,15.83
2024-03-26T10:13:14.217Z,15.80
2024-03-26T10:15:44.596Z,15.74
2024-03-26T10:18:11.054Z,15.71
2024-03-26T10:20:37.293Z,15.69
2024-03-26T10:23:09.289Z,15.65
2024-03-26T10:25:35.816Z,15.59
2024-03-26T10:28:03.364Z,15.66
2024-03-26T10:30:30.734Z,15.78
2024-03-26T10:33:01.211Z,15.84
2024-03-26T10:35:37.964Z,15.90
2024-03-26T10:38:17.039Z,15.86
2024-03-26T10:40:54.329Z,15.81
2024-03-26T10:43:22.464Z,15.82
2024-03-26T10:48:16.975Z,15.54
2024-03-26T10:50:43.554Z,15.58
2024-03-26T10:53:11.657Z,15.60
2024-03-26T10:55:38.085Z,15.66
2024-03-26T10:58:04.582Z,15.73
2024-03-26T11:00:33.413Z,15.75
2024-03-26T11:03:02.813Z,15.78
2024-03-26T11:05:31.812Z,15.85
2024-03-26T11:08:01.054Z,15.95
2024-03-26T11:10:27.260Z,16.04
2024-03-26T11:12:53.691Z,16.09
2024-03-26T11:15:28.697Z,16.09
2024-03-26T11:18:03.535Z,16.04
2024-03-26T11:20:42.193Z,15.96
2024-03-26T11:23:13.691Z,15.89
2024-03-26T11:25:40.161Z,15.89
2024-03-26T11:28:06.755Z,15.85
2024-03-26T11:30:34.414Z,15.90
2024-03-26T11:33:02.035Z,15.96
2024-03-26T11:35:30.240Z,15.98
2024-03-26T11:38:00.420Z,16.01
2024-03-26T11:40:29.743Z,15.98
2024-03-26T11:42:56.682Z,16.00
2024-03-26T11:45:25.476Z,16.05
2024-03-26T11:47:54.997Z,16.09
2024-03-26T11:50:21.491Z,16.10
2024-03-26T11:52:47.675Z,16.07
2024-03-26T11:55:14.437Z,16.00
2024-03-26T11:57:44.000Z,15.98
2024-03-26T12:00:14.484Z,16.02
2024-03-26T12:02:40.940Z,16.04
2024-03-26T12:05:07.823Z,15.98
2024-03-26T12:07:36.314Z,15.79
2024-03-26T12:10:05.077Z,15.67
2024-03-26T12:12:39.508Z,15.64
2024-03-26T12:15:16.765Z,15.73
2024-03-26T12:17:46.290Z,15.85
2024-03-26T12:20:18.169Z,15.92
2024-03-26T12:22:48.405Z,15.92
2024-03-26T12:25:17.949Z,15.99
2024-03-26T12:27:51.737Z,16.07
2024-03-26T12:30:18.303Z,16.14
2024-03-26T12:32:54.513Z,16.19
2024-03-26T12:35:24.602Z,16.25
2024-03-26T12:37:50.775Z,16.30
2024-03-26T12:40:21.316Z,16.31
2024-03-26T12:42:50.790Z,16.31
2024-03-26T12:45:20.571Z,16.31
2024-03-26T12:47:49.889Z,16.31
2024-03-26T12:50:36.639Z,16.32
2024-03-26T12:53:02.947Z,16.31
2024-03-26T12:55:29.257Z,16.31
2024-03-26T12:57:58.064Z,16.25
2024-03-26T13:00:25.000Z,16.09
2024-03-26T13:02:53.456Z,15.91
2024-03-26T13:05:21.712Z,15.75
2024-03-26T13:07:49.668Z,15.68
2024-03-26T13:10:16.922Z,15.69
2024-03-26T13:12:43.123Z,15.70
2024-03-26T13:15:09.573Z,15.69
2024-03-26T13:17:38.363Z,15.69
2024-03-26T13:20:20.571Z,15.68
2024-03-26T13:22:47.894Z,15.68
2024-03-26T13:25:17.790Z,15.66
2024-03-26T13:27:50.123Z,15.57
2024-03-26T13:30:30.602Z,15.45
2024-03-26T13:33:06.072Z,15.41
2024-03-26T13:35:32.720Z,15.39
2024-03-26T13:37:58.960Z,15.37
2024-03-26T13:40:41.217Z,15.35
2024-03-26T13:43:16.997Z,15.32
2024-03-26T13:45:43.355Z,15.31
2024-03-26T13:48:13.492Z,15.30
2024-03-26T13:50:43.830Z,15.28
2024-03-26T13:53:14.733Z,15.25
2024-03-26T13:55:41.760Z,15.23
2024-03-26T13:58:10.970Z,15.20
2024-03-26T14:00:40.641Z,15.18
2024-03-26T14:03:10.227Z,15.14
2024-03-26T14:05:36.665Z,15.10
2024-03-26T14:08:03.429Z,15.04
2024-03-26T14:10:32.192Z,14.99
2024-03-26T14:13:06.865Z,14.92
2024-03-26T14:15:33.038Z,14.85
2024-03-26T14:17:59.595Z,14.74
2024-03-26T14:20:46.228Z,14.56
2024-03-26T14:23:16.635Z,14.42
2024-03-26T14:25:46.179Z,14.37
2024-03-26T14:28:18.944Z,14.34
2024-03-26T14:30:46.225Z,14.29
2024-03-26T14:33:12.460Z,14.24
2024-03-26T14:35:44.875Z,14.17
2024-03-26T14:38:12.757Z,14.06
2024-03-26T14:40:42.221Z,14.01
2024-03-26T14:43:11.093Z,13.97
2024-03-26T14:45:38.683Z,13.94
2024-03-26T14:48:07.571Z,13.92
2024-03-26T14:50:33.821Z,13.92
2024-03-26T14:52:59.941Z,13.91
2024-03-26T14:55:32.314Z,13.89
2024-03-26T14:57:59.948Z,13.87
2024-03-26T15:00:29.995Z,13.86
2024-03-26T15:02:56.202Z,13.85
2024-03-26T15:05:23.049Z,13.82
2024-03-26T15:07:52.103Z,13.78
2024-03-26T15:10:19.167Z,13.75
2024-03-26T15:12:45.417Z,13.70
2024-03-26T15:15:12.125Z,13.56
2024-03-26T15:17:38.541Z,13.51
2024-03-26T15:20:05.492Z,13.43
2024-03-26T15:22:32.639Z,13.35
2024-03-26T15:25:01.877Z,13.33
2024-03-26T15:27:28.119Z,13.29
2024-03-26T15:30:13.302Z,13.26
2024-03-26T15:32:47.516Z,13.26
2024-03-26T15:35:15.343Z,13.25
2024-03-26T15:37:42.174Z,13.24
2024-03-26T15:40:09.420Z,13.25
2024-03-26T15:42:37.205Z,13.25
2024-03-26T15:45:03.965Z,13.26
2024-03-26T15:47:30.572Z,13.26
2024-03-26T15:49:59.110Z,13.27
2024-03-26T15:52:28.275Z,13.27
2024-03-26T15:54:56.853Z,13.26
2024-03-26T15:57:25.380Z,13.25
2024-03-26T15:59:54.651Z,13.24
2024-03-26T16:02:22.283Z,13.22
2024-03-26T16:05:12.224Z,13.19
2024-03-26T16:07:38.800Z,13.15
2024-03-26T16:10:15.120Z,13.11
2024-03-26T16:12:51.000Z,13.08
2024-03-26T16:15:18.182Z,13.03
2024-03-26T16:17:50.253Z,12.97
2024-03-26T16:20:22.335Z,12.89
2024-03-26T16:22:48.635Z,12.82
2024-03-26T16:25:15.291Z,12.75
2024-03-26T16:27:42.821Z,12.68
2024-03-26T16:30:17.923Z,12.63
2024-03-26T16:32:46.604Z,12.57
2024-03-26T16:35:12.903Z,12.51
2024-03-26T16:37:39.382Z,12.43
2024-03-26T16:40:07.670Z,12.29
2024-03-26T16:42:49.502Z,12.23
2024-03-26T16:45:16.611Z,12.17
2024-03-26T16:47:42.974Z,12.08
2024-03-26T16:50:12.328Z,11.97
2024-03-26T16:52:39.162Z,11.79
2024-03-26T16:55:07.099Z,11.66
2024-03-26T16:57:33.516Z,11.51
2024-03-26T16:59:59.633Z,11.49
2024-03-26T17:02:30.853Z,11.52
2024-03-26T17:05:03.632Z,11.55
2024-03-26T17:07:30.043Z,11.58
2024-03-26T17:10:09.360Z,11.59
2024-03-26T17:12:36.109Z,11.58
2024-03-26T17:15:05.249Z,11.55
2024-03-26T17:17:36.459Z,11.53
2024-03-26T17:20:03.233Z,11.51
2024-03-26T17:22:29.869Z,11.43
2024-03-26T17:25:10.884Z,11.37
2024-03-26T17:27:40.324Z,11.34
2024-03-26T17:33:02.286Z,11.23
2024-03-26T17:35:41.564Z,11.16
2024-03-26T17:38:15.956Z,11.11
2024-03-26T17:40:55.404Z,10.98
2024-03-26T17:43:26.682Z,10.81
2024-03-26T17:45:53.254Z,10.72
2024-03-26T17:48:27.042Z,10.75
2024-03-26T17:51:12.112Z,10.78
2024-03-26T17:54:04.329Z,10.82
2024-03-26T17:56:43.725Z,10.87
2024-03-26T17:59:12.738Z,10.73
2024-03-26T18:02:09.746Z,10.47
2024-03-26T18:04:36.473Z,10.21
2024-03-26T18:07:07.977Z,10.00
2024-03-26T18:09:46.320Z,9.91
2024-03-26T18:12:12.723Z,9.96
2024-03-26T18:14:38.898Z,9.94
2024-03-26T18:17:05.398Z,9.80
2024-03-26T18:19:53.320Z,9.72
2024-03-26T18:22:22.662Z,9.74
2024-03-26T18:24:51.127Z,9.72
2024-03-26T18:27:21.158Z,9.73
2024-03-26T18:29:54.922Z,9.66
2024-03-26T18:32:32.801Z,9.58
2024-03-26T18:35:12.549Z,9.53
2024-03-26T18:37:39.403Z,9.46
2024-03-26T18:40:06.957Z,9.48
2024-03-26T18:42:33.435Z,9.54
2024-03-26T18:44:59.824Z,9.52
2024-03-26T18:47:33.927Z,9.55
2024-03-26T18:50:07.626Z,9.63
2024-03-26T18:52:34.306Z,9.68
2024-03-26T18:55:01.323Z,9.74
2024-03-26T18:57:34.455Z,9.81
2024-03-26T19:00:04.558Z,9.89
2024-03-26T19:02:31.784Z,9.92
2024-03-26T19:05:01.115Z,9.87
2024-03-26T19:07:27.984Z,9.86
2024-03-26T19:09:58.967Z,9.77
2024-03-26T19:12:27.386Z,9.75
2024-03-26T19:14:56.278Z,9.67
2024-03-26T19:17:23.095Z,9.70
2024-03-26T19:19:49.574Z,9.74
2024-03-26T19:22:23.553Z,9.78
2024-03-26T19:24:52.441Z,9.76
2024-03-26T19:27:18.637Z,9.79
2024-03-26T19:29:49.419Z,9.84
2024-03-26T19:32:15.814Z,9.88
2024-03-26T19:34:51.642Z,9.92
2024-03-26T19:37:17.865Z,9.93
2024-03-26T19:39:44.317Z,9.93
2024-03-26T19:42:10.723Z,9.95
2024-03-26T19:44:39.758Z,9.97
2024-03-26T19:47:05.957Z,9.98
2024-03-26T19:49:36.235Z,10.00
2024-03-26T19:52:02.688Z,10.02
2024-03-26T19:54:29.085Z,10.05
2024-03-26T19:56:55.195Z,10.05
2024-03-26T19:59:21.443Z,10.05
2024-03-26T20:01:47.651Z,10.04
2024-03-26T20:04:13.831Z,10.03
2024-03-26T20:06:40.084Z,10.04
2024-03-26T20:09:08.412Z,10.07
2024-03-26T20:11:34.583Z,10.06
2024-03-26T20:14:00.805Z,10.05
2024-03-26T20:16:27.044Z,10.05
2024-03-26T20:18:53.217Z,10.05
2024-03-26T20:21:19.361Z,10.04
2024-03-26T20:23:52.942Z,10.05
2024-03-26T20:26:22.268Z,10.06
2024-03-26T20:28:48.647Z,9.97
2024-03-26T20:31:16.668Z,9.90
2024-03-26T20:33:44.216Z,9.89
2024-03-26T20:36:16.904Z,9.83
2024-03-26T20:38:44.560Z,9.82
2024-03-26T20:41:11.147Z,9.83
2024-03-26T20:43:40.794Z,9.84
2024-03-26T20:46:09.562Z,9.81
2024-03-26T20:48:35.719Z,9.83
2024-03-26T20:51:12.559Z,9.85
2024-03-26T20:53:40.187Z,9.82
2024-03-26T20:56:23.132Z,9.71
2024-03-26T20:58:59.772Z,9.66
2024-03-26T21:01:26.103Z,9.69
2024-03-26T21:03:52.277Z,9.73
2024-03-26T21:06:18.511Z,9.74
2024-03-26T21:08:44.758Z,9.74
2024-03-26T21:11:12.976Z,9.73
2024-03-26T21:13:40.594Z,9.72
2024-03-26T21:16:11.552Z,9.71
2024-03-26T21:18:48.245Z,9.74
2024-03-26T21:21:22.192Z,9.76
2024-03-26T21:23:48.370Z,9.73
2024-03-26T21:26:18.517Z,9.67
2024-03-26T21:28:49.474Z,9.64
2024-03-26T21:31:15.793Z,9.61
2024-03-26T21:33:41.862Z,9.63
2024-03-26T21:36:07.980Z,9.66
2024-03-26T21:38:37.051Z,9.69
2024-03-26T21:41:05.607Z,9.71
2024-03-26T21:43:33.325Z,9.69
2024-03-26T21:46:02.645Z,9.71
2024-03-26T21:48:28.722Z,9.74
2024-03-26T21:50:59.474Z,9.72
2024-03-26T21:53:28.614Z,9.69
2024-03-26T21:56:05.170Z,9.73
2024-03-26T21:58:31.427Z,9.78
2024-03-26T22:01:04.425Z,9.81
2024-03-26T22:03:32.294Z,9.85
2024-03-26T22:05:58.747Z,9.87
2024-03-26T22:08:26.748Z,9.87
2024-03-26T22:10:53.806Z,9.82
2024-03-26T22:13:19.990Z,9.73
2024-03-26T22:15:46.116Z,9.71
2024-03-26T22:18:12.279Z,9.70
2024-03-26T22:20:38.483Z,9.74
2024-03-26T22:23:04.836Z,9.77
2024-03-26T22:25:30.976Z,9.78
2024-03-26T22:27:57.484Z,9.77
2024-03-26T22:30:24.000Z,9.78
2024-03-26T22:32:50.140Z,9.79
2024-03-26T22:35:16.871Z,9.82
2024-03-26T22:37:44.757Z,9.83
2024-03-26T22:40:12.281Z,9.82
2024-03-26T22:42:39.147Z,9.83
2024-03-26T22:45:07.535Z,9.84
2024-03-26T22:47:33.944Z,9.84
2024-03-26T22:50:00.063Z,9.85
2024-03-26T22:52:26.297Z,9.84
2024-03-26T22:54:52.380Z,9.85
2024-03-26T22:57:18.497Z,9.84
2024-03-26T22:59:47.140Z,9.85
2024-03-26T23:02:13.318Z,9.87
2024-03-26T23:04:39.457Z,9.89
2024-03-26T23:07:05.623Z,9.89
2024-03-26T23:09:31.681Z,9.89
2024-03-26T23:11:58.068Z,9.87
2024-03-26T23:14:24.184Z,9.86
2024-03-26T23:16:50.639Z,9.85
2024-03-26T23:19:16.697Z,9.84
2024-03-26T23:21:43.019Z,9.83
2024-03-26T23:24:09.788Z,9.82
2024-03-26T23:26:35.888Z,9.79
2024-03-26T23:29:02.047Z,9.75
2024-03-26T23:31:28.346Z,9.71
2024-03-26T23:33:54.492Z,9.71
2024-03-26T23:36:20.624Z,9.69
2024-03-26T23:38:46.737Z,9.69
2024-03-26T23:41:12.985Z,9.70
2024-03-26T23:43:39.110Z,9.69
2024-03-26T23:46:05.337Z,9.67
2024-03-26T23:48:31.506Z,9.67
2024-03-26T23:50:57.870Z,9.67
2024-03-26T23:53:24.160Z,9.67
2024-03-26T23:55:53.492Z,9.66
2024-03-26T23:58:19.613Z,9.65
